Time;durP1;ratioP1;P1;durP2;ratioP2;P2;SDS_P1;SDS_P2;PMS_P1;PMS_P2;Temp;Humidity;BMP_temperature;BMP_pressure;BME280_temperature;BME280_humidity;BME280_pressure;Samples;Min_cycle;Max_cycle;Signal;HPM_P1;HPM_P2
2021/07/31 00:02:18;;;;;;;11.40;9.18;;;;;;;28.49;100.00;100411.53;4917471;29;20096;-71
2021/07/31 00:05:06;;;;;;;14.90;9.10;;;;;;;28.48;100.00;100417.09;4917619;29;20072;-70
2021/07/31 00:07:52;;;;;;;9.70;8.27;;;;;;;28.37;100.00;100412.69;4917682;29;20040;-70
2021/07/31 00:10:37;;;;;;;13.95;8.40;;;;;;;28.55;100.00;100410.97;4917179;29;20032;-71
2021/07/31 00:13:25;;;;;;;11.60;8.63;;;;;;;28.59;100.00;100409.66;4917563;29;20024;-71
2021/07/31 00:16:10;;;;;;;12.68;9.27;;;;;;;28.42;100.00;100409.59;4917498;29;20453;-71
2021/07/31 00:18:56;;;;;;;14.68;9.02;;;;;;;28.42;100.00;100412.28;4917366;29;20040;-70
2021/07/31 00:21:42;;;;;;;10.63;8.30;;;;;;;28.48;100.00;100409.00;4917356;29;20040;-70
2021/07/31 00:24:29;;;;;;;11.90;8.25;;;;;;;28.39;100.00;100410.72;4917011;29;20035;-70
2021/07/31 00:27:14;;;;;;;12.80;8.45;;;;;;;28.58;100.00;100416.06;4917651;29;20028;-71
2021/07/31 00:30:00;;;;;;;13.90;8.35;;;;;;;28.71;100.00;100415.69;4917143;29;20067;-71
2021/07/31 00:32:46;;;;;;;14.38;8.88;;;;;;;28.29;100.00;100411.72;4917244;29;20032;-71
2021/07/31 00:35:32;;;;;;;13.93;8.68;;;;;;;28.15;100.00;100412.19;4916691;29;20042;-71
2021/07/31 00:38:17;;;;;;;14.50;8.45;;;;;;;28.38;100.00;100409.00;4917652;29;20374;-71
2021/07/31 00:41:03;;;;;;;14.75;8.88;;;;;;;28.01;100.00;100409.97;4917240;29;20036;-70
2021/07/31 00:43:49;;;;;;;14.45;8.30;;;;;;;28.44;100.00;100410.31;4917058;29;20028;-71
2021/07/31 00:46:35;;;;;;;11.82;8.52;;;;;;;28.45;100.00;100412.00;4917246;29;20111;-70
2021/07/31 00:49:21;;;;;;;11.02;8.43;;;;;;;28.31;100.00;100412.41;4920341;29;20051;-71
2021/07/31 00:52:07;;;;;;;15.40;8.35;;;;;;;28.19;100.00;100414.44;4921696;29;20028;-71
2021/07/31 00:54:56;;;;;;;14.93;8.88;;;;;;;28.40;100.00;100412.41;4920805;29;20082;-71
2021/07/31 00:57:45;;;;;;;17.70;8.15;;;;;;;27.94;100.00;100412.38;4920912;29;20056;-71
2021/07/31 01:00:31;;;;;;;12.70;8.20;;;;;;;27.61;100.00;100410.13;4920369;29;20430;-71
2021/07/31 01:03:17;;;;;;;12.02;8.50;;;;;;;27.90;100.00;100402.03;4921195;29;20103;-71
2021/07/31 01:06:03;;;;;;;14.18;8.60;;;;;;;27.41;100.00;100400.34;4920728;29;20052;-71
2021/07/31 01:08:49;;;;;;;12.73;8.30;;;;;;;27.54;100.00;100392.81;4921085;29;20035;-70
2021/07/31 01:11:36;;;;;;;13.23;8.00;;;;;;;27.70;100.00;100401.19;4920463;29;20032;-71
2021/07/31 01:14:21;;;;;;;10.95;7.90;;;;;;;27.86;100.00;100398.78;4920717;29;20103;-71
2021/07/31 01:17:11;;;;;;;12.57;8.20;;;;;;;27.71;100.00;100393.94;4920004;29;20032;-70
2021/07/31 01:19:57;;;;;;;10.43;7.82;;;;;;;27.71;100.00;100396.63;4920730;29;20111;-71
2021/07/31 01:22:43;;;;;;;13.73;8.10;;;;;;;27.90;100.00;100392.13;4920419;29;20119;-71
2021/07/31 01:25:29;;;;;;;12.00;8.10;;;;;;;27.77;100.00;100388.84;4921165;29;20103;-71
2021/07/31 01:28:15;;;;;;;15.77;8.18;;;;;;;27.91;100.00;100380.34;4920531;29;20039;-71
2021/07/31 01:31:01;;;;;;;12.77;8.25;;;;;;;27.93;100.00;100380.19;4920654;29;20064;-72
2021/07/31 01:33:46;;;;;;;15.25;8.07;;;;;;;27.35;100.00;100379.34;4921041;29;20516;-71
2021/07/31 01:36:32;;;;;;;11.32;8.05;;;;;;;27.29;100.00;100377.25;4919673;29;20036;-70
2021/07/31 01:39:18;;;;;;;19.15;8.10;;;;;;;27.26;100.00;100380.22;4920605;29;20038;-71
2021/07/31 01:42:07;;;;;;;13.45;7.88;;;;;;;27.82;100.00;100383.06;4919856;29;20042;-71
2021/07/31 01:44:53;;;;;;;12.55;7.80;;;;;;;27.67;100.00;100371.84;4919889;29;20028;-70
2021/07/31 01:47:40;;;;;;;13.75;8.05;;;;;;;27.83;100.00;100374.84;4920266;29;20036;-71
2021/07/31 01:50:26;;;;;;;10.10;7.72;;;;;;;28.21;100.00;100381.97;4920248;29;20036;-72
2021/07/31 01:53:12;;;;;;;15.38;8.88;;;;;;;28.09;100.00;100377.75;4920183;29;20040;-72
2021/07/31 01:55:58;;;;;;;13.50;7.78;;;;;;;28.19;100.00;100383.94;4920715;29;20051;-72
2021/07/31 01:58:43;;;;;;;15.30;8.00;;;;;;;27.67;100.00;100387.13;4919192;29;20071;-72
2021/07/31 02:01:29;;;;;;;14.27;8.00;;;;;;;27.74;100.00;100390.97;4920027;29;20039;-72
2021/07/31 02:04:15;;;;;;;12.65;8.13;;;;;;;28.15;100.00;100396.88;4920185;29;20513;-71
2021/07/31 02:07:02;;;;;;;12.27;7.43;;;;;;;27.80;100.00;100391.22;4919225;29;20066;-72
2021/07/31 02:09:48;;;;;;;12.98;7.72;;;;;;;27.74;100.00;100394.53;4920034;29;20028;-71
2021/07/31 02:12:34;;;;;;;12.63;8.57;;;;;;;27.58;100.00;100404.16;4919345;29;20027;-72
2021/07/31 02:15:19;;;;;;;12.73;8.05;;;;;;;27.81;100.00;100392.97;4919721;29;20064;-72
2021/07/31 02:18:05;;;;;;;11.85;7.63;;;;;;;27.64;100.00;100399.03;4919613;29;20031;-71
2021/07/31 02:20:51;;;;;;;11.73;8.25;;;;;;;27.64;100.00;100400.91;4919666;29;20465;-72
2021/07/31 02:23:37;;;;;;;12.10;8.32;;;;;;;27.45;100.00;100393.69;4919438;29;20043;-72
2021/07/31 02:26:24;;;;;;;12.52;8.07;;;;;;;27.39;100.00;100396.94;4919240;29;20063;-71
2021/07/31 02:29:10;;;;;;;12.18;8.32;;;;;;;27.16;100.00;100388.25;4919123;29;20184;-71
2021/07/31 02:31:55;;;;;;;12.85;8.25;;;;;;;27.43;100.00;100392.97;4919273;29;20032;-71
2021/07/31 02:34:41;;;;;;;13.60;8.70;;;;;;;27.37;100.00;100399.75;4919677;29;20046;-71
2021/07/31 02:37:27;;;;;;;13.60;8.43;;;;;;;27.56;100.00;100393.53;4919481;29;20087;-71
2021/07/31 02:40:13;;;;;;;12.55;8.20;;;;;;;27.31;100.00;100404.84;4919194;29;20032;-71
2021/07/31 02:42:59;;;;;;;12.98;8.23;;;;;;;27.16;100.00;100404.38;4918709;29;20031;-71
2021/07/31 02:45:44;;;;;;;14.55;8.27;;;;;;;27.55;100.00;100401.75;4918970;29;20083;-71
2021/07/31 02:48:32;;;;;;;10.32;8.50;;;;;;;27.71;100.00;100400.19;4918820;29;20450;-71
2021/07/31 02:51:19;;;;;;;13.05;8.13;;;;;;;27.32;100.00;100403.84;4918835;29;20088;-71
2021/07/31 02:54:05;;;;;;;9.70;8.07;;;;;;;27.36;100.00;100410.66;4918786;29;20032;-72
2021/07/31 02:56:50;;;;;;;11.73;8.75;;;;;;;27.48;100.00;100398.75;4919584;29;20070;-71
2021/07/31 02:59:36;;;;;;;10.75;8.43;;;;;;;27.17;100.00;100400.69;4919918;29;20102;-72
2021/07/31 03:02:24;;;;;;;16.23;8.98;;;;;;;27.24;100.00;100404.56;4919301;29;20044;-72
2021/07/31 03:05:10;;;;;;;15.98;8.38;;;;;;;27.17;100.00;100408.75;4918228;29;20032;-72
2021/07/31 03:07:56;;;;;;;11.90;8.50;;;;;;;27.13;100.00;100412.72;4919013;29;20027;-72
2021/07/31 03:10:41;;;;;;;14.50;9.32;;;;;;;27.27;100.00;100398.91;4917991;29;20044;-71
2021/07/31 03:13:27;;;;;;;13.75;8.40;;;;;;;27.48;100.00;100413.09;4918718;29;20061;-72
2021/07/31 03:16:13;;;;;;;14.93;8.95;;;;;;;27.39;100.00;100419.31;4918711;29;20028;-72
2021/07/31 03:18:59;;;;;;;12.77;8.20;;;;;;;27.33;100.00;100413.66;4918502;29;20036;-72
2021/07/31 03:21:45;;;;;;;15.32;8.85;;;;;;;27.51;100.00;100422.72;4918927;29;20036;-71
2021/07/31 03:24:34;;;;;;;11.60;8.27;;;;;;;27.01;100.00;100424.59;4917991;29;20024;-71
2021/07/31 03:27:20;;;;;;;12.50;8.48;;;;;;;27.13;100.00;100425.34;4918504;29;20032;-71
2021/07/31 03:30:06;;;;;;;12.25;9.05;;;;;;;26.91;100.00;100431.78;4918089;29;20469;-71
2021/07/31 03:32:53;;;;;;;13.63;8.43;;;;;;;27.11;100.00;100446.13;4918395;29;20537;-71
2021/07/31 03:35:41;;;;;;;11.70;8.85;;;;;;;27.09;100.00;100453.50;4918127;29;20047;-71
2021/07/31 03:38:27;;;;;;;12.18;8.77;;;;;;;26.99;100.00;100452.59;4918532;29;20103;-71
2021/07/31 03:41:13;;;;;;;13.75;9.13;;;;;;;27.36;100.00;100456.41;4918229;29;20040;-71
2021/07/31 03:43:59;;;;;;;15.23;10.32;;;;;;;27.37;100.00;100453.56;4918192;29;20031;-72
2021/07/31 03:46:46;;;;;;;16.63;11.77;;;;;;;27.34;100.00;100458.41;4918265;29;20072;-71
2021/07/31 03:49:32;;;;;;;15.40;10.30;;;;;;;26.70;100.00;100457.91;4918038;29;20032;-71
2021/07/31 03:52:18;;;;;;;18.60;10.13;;;;;;;26.93;100.00;100459.38;4918558;29;20051;-71
2021/07/31 03:55:08;;;;;;;19.15;10.90;;;;;;;26.86;100.00;100462.75;4918111;29;20097;-71
2021/07/31 03:57:53;;;;;;;20.77;11.98;;;;;;;27.02;100.00;100455.03;4918302;29;20059;-72
2021/07/31 04:00:40;;;;;;;17.33;11.75;;;;;;;27.10;100.00;100466.81;4918129;29;20024;-72
2021/07/31 04:03:26;;;;;;;17.13;12.98;;;;;;;26.88;100.00;100463.50;4918362;29;20032;-72
2021/07/31 04:06:12;;;;;;;16.15;12.52;;;;;;;27.19;100.00;100465.13;4917615;29;20111;-71
2021/07/31 04:08:57;;;;;;;18.20;13.00;;;;;;;27.40;100.00;100463.19;4918164;29;20043;-71
2021/07/31 04:11:43;;;;;;;20.35;13.05;;;;;;;26.65;100.00;100464.66;4917983;29;20032;-71
2021/07/31 04:14:30;;;;;;;19.25;13.02;;;;;;;26.81;100.00;100454.25;4918466;29;20040;-71
2021/07/31 04:17:16;;;;;;;17.65;12.35;;;;;;;26.67;100.00;100454.59;4918162;29;20105;-71
2021/07/31 04:20:02;;;;;;;16.90;12.35;;;;;;;26.98;100.00;100462.53;4918485;29;20028;-71
2021/07/31 04:22:48;;;;;;;20.20;11.75;;;;;;;26.94;100.00;100463.78;4917874;29;20028;-71
2021/07/31 04:25:35;;;;;;;14.95;11.25;;;;;;;27.09;100.00;100464.25;4918052;29;20163;-71
2021/07/31 04:28:21;;;;;;;12.90;11.27;;;;;;;26.55;100.00;100466.41;4917708;29;20445;-71
2021/07/31 04:31:14;;;;;;;19.35;11.70;;;;;;;26.76;100.00;100476.16;4917727;29;20437;-71
2021/07/31 04:34:00;;;;;;;15.18;10.88;;;;;;;27.06;100.00;100481.53;4918576;29;20027;-71
2021/07/31 04:36:45;;;;;;;17.90;10.82;;;;;;;27.35;100.00;100474.41;4916945;29;20412;-71
2021/07/31 04:39:32;;;;;;;16.13;10.82;;;;;;;27.36;100.00;100478.78;4916888;29;20039;-71
2021/07/31 04:42:17;;;;;;;15.23;11.00;;;;;;;27.17;100.00;100478.69;4917145;29;20449;-71
2021/07/31 04:45:04;;;;;;;14.85;11.30;;;;;;;27.31;100.00;100482.88;4917754;29;20039;-71
2021/07/31 04:47:50;;;;;;;15.32;10.77;;;;;;;27.53;100.00;100483.47;4917589;29;20369;-71
2021/07/31 04:50:35;;;;;;;22.33;12.18;;;;;;;27.02;100.00;100477.41;4917413;29;20055;-71
2021/07/31 04:53:21;;;;;;;20.75;11.75;;;;;;;27.38;100.00;100478.66;4917750;29;20035;-72
2021/07/31 04:56:07;;;;;;;16.17;10.05;;;;;;;27.36;100.00;100481.47;4917466;29;20032;-71
2021/07/31 04:58:53;;;;;;;29.33;10.57;;;;;;;27.32;100.00;100490.81;4917306;29;20191;-71
2021/07/31 05:01:39;;;;;;;25.90;10.27;;;;;;;27.44;100.00;100488.84;4917045;29;20062;-71
2021/07/31 05:04:24;;;;;;;20.98;11.52;;;;;;;27.25;100.00;100488.84;4916547;29;20458;-71
2021/07/31 05:07:10;;;;;;;16.08;10.45;;;;;;;26.58;100.00;100488.53;4917263;29;20035;-71
2021/07/31 05:09:56;;;;;;;17.20;12.10;;;;;;;27.06;100.00;100491.41;4917674;29;20032;-71
2021/07/31 05:12:42;;;;;;;18.95;10.38;;;;;;;27.67;100.00;100493.00;4917689;29;20039;-71
2021/07/31 05:15:27;;;;;;;18.25;11.15;;;;;;;27.67;100.00;100502.91;4916516;29;20036;-71
2021/07/31 05:18:13;;;;;;;18.27;10.45;;;;;;;27.83;100.00;100501.41;4916619;29;20484;-71
2021/07/31 05:20:59;;;;;;;13.38;10.45;;;;;;;27.41;100.00;100494.53;4917681;29;20103;-72
2021/07/31 05:23:45;;;;;;;20.48;10.10;;;;;;;27.57;100.00;100504.75;4917537;29;20036;-71
2021/07/31 05:26:31;;;;;;;14.40;8.93;;;;;;;28.19;100.00;100507.91;4917281;29;20028;-71
2021/07/31 05:29:16;;;;;;;17.13;10.23;;;;;;;27.98;100.00;100500.00;4916790;29;20441;-70
2021/07/31 05:32:02;;;;;;;13.15;9.57;;;;;;;27.83;100.00;100498.72;4916812;29;20036;-70
2021/07/31 05:34:53;;;;;;;17.60;10.57;;;;;;;28.37;100.00;100508.88;4919074;29;20043;-71
2021/07/31 05:37:39;;;;;;;18.73;11.23;;;;;;;28.50;100.00;100501.34;4921215;29;20028;-70
2021/07/31 05:40:24;;;;;;;17.02;9.93;;;;;;;28.51;100.00;100505.75;4920725;29;20063;-71
2021/07/31 05:43:10;;;;;;;16.90;10.70;;;;;;;28.20;100.00;100502.38;4919962;29;20035;-71
2021/07/31 05:45:56;;;;;;;14.35;10.25;;;;;;;28.13;100.00;100503.97;4919945;29;20433;-71
2021/07/31 05:48:42;;;;;;;17.52;9.20;;;;;;;28.62;100.00;100505.59;4920278;29;20059;-71
2021/07/31 05:51:27;;;;;;;20.77;9.70;;;;;;;28.52;100.00;100502.91;4920521;29;20029;-71
2021/07/31 05:54:13;;;;;;;13.30;9.88;;;;;;;28.18;100.00;100507.06;4919840;29;20421;-72
2021/07/31 05:56:59;;;;;;;17.70;10.27;;;;;;;28.40;100.00;100506.72;4919584;29;20087;-71
2021/07/31 05:59:45;;;;;;;19.02;9.75;;;;;;;29.05;100.00;100511.28;4920280;29;20040;-72
2021/07/31 06:02:30;;;;;;;12.80;9.40;;;;;;;28.70;100.00;100513.78;4920008;29;20028;-71
2021/07/31 06:05:16;;;;;;;16.15;9.60;;;;;;;28.48;100.00;100509.59;4919665;29;20028;-71
2021/07/31 06:08:02;;;;;;;16.08;10.02;;;;;;;28.76;100.00;100508.66;4919504;29;20039;-71
2021/07/31 06:10:48;;;;;;;15.00;10.20;;;;;;;29.23;100.00;100510.34;4920743;29;20028;-72
2021/07/31 06:13:34;;;;;;;16.25;10.68;;;;;;;29.69;100.00;100512.06;4920746;29;20032;-72
2021/07/31 06:16:19;;;;;;;24.98;11.07;;;;;;;29.58;100.00;100509.59;4919981;29;20208;-72
2021/07/31 06:19:05;;;;;;;14.85;10.10;;;;;;;29.83;100.00;100522.31;4918992;29;20115;-72
2021/07/31 06:21:51;;;;;;;14.82;10.20;;;;;;;29.70;100.00;100513.75;4919464;29;20076;-71
2021/07/31 06:24:38;;;;;;;17.90;9.98;;;;;;;30.10;100.00;100514.16;4919938;29;20065;-71
2021/07/31 06:27:24;;;;;;;17.02;10.77;;;;;;;30.12;100.00;100518.38;4919466;29;20035;-71
2021/07/31 06:30:10;;;;;;;16.98;10.30;;;;;;;29.64;100.00;100512.53;4919569;29;20032;-71
2021/07/31 06:32:55;;;;;;;16.73;10.45;;;;;;;29.47;100.00;100513.31;4920130;29;20111;-71
2021/07/31 06:35:41;;;;;;;15.93;11.13;;;;;;;30.01;100.00;100515.09;4923054;29;20051;-72
2021/07/31 06:38:27;;;;;;;18.52;11.00;;;;;;;30.65;100.00;100507.47;4921259;29;20090;-71
2021/07/31 06:41:13;;;;;;;19.10;11.07;;;;;;;30.24;100.00;100513.59;4919214;29;20020;-71
2021/07/31 06:43:58;;;;;;;24.38;10.40;;;;;;;30.63;100.00;100509.50;4919787;29;20032;-70
2021/07/31 06:46:44;;;;;;;17.25;10.27;;;;;;;30.80;100.00;100516.72;4918264;29;20373;-71
2021/07/31 06:49:30;;;;;;;15.25;10.23;;;;;;;31.33;100.00;100512.78;4919305;29;20035;-71
2021/07/31 06:52:16;;;;;;;17.80;10.48;;;;;;;31.26;100.00;100510.91;4919910;29;20469;-71
2021/07/31 06:55:02;;;;;;;15.43;10.05;;;;;;;30.66;100.00;100509.19;4918900;29;20040;-72
2021/07/31 06:57:47;;;;;;;17.85;10.43;;;;;;;30.82;100.00;100504.75;4919097;29;20055;-71
2021/07/31 07:00:33;;;;;;;15.70;10.48;;;;;;;30.91;100.00;100503.75;4918874;29;20107;-72
2021/07/31 07:03:19;;;;;;;16.88;10.68;;;;;;;31.24;100.00;100504.81;4918888;29;20028;-71
2021/07/31 07:06:07;;;;;;;18.50;10.63;;;;;;;31.60;100.00;100505.41;4918995;29;20028;-72
2021/07/31 07:08:52;;;;;;;26.65;11.10;;;;;;;31.85;100.00;100509.91;4919273;29;20036;-71
2021/07/31 07:11:38;;;;;;;22.00;10.70;;;;;;;31.40;100.00;100502.16;4918891;29;20027;-71
2021/07/31 07:14:24;;;;;;;16.13;10.32;;;;;;;31.59;100.00;100501.88;4919729;29;20059;-71
2021/07/31 07:17:10;;;;;;;14.90;10.45;;;;;;;31.67;100.00;100507.31;4918714;29;20036;-71
2021/07/31 07:19:55;;;;;;;17.05;10.75;;;;;;;31.91;100.00;100499.25;4918818;29;20369;-71
2021/07/31 07:22:41;;;;;;;19.08;10.27;;;;;;;32.00;100.00;100492.81;4918311;29;20040;-72
2021/07/31 07:25:27;;;;;;;21.17;10.55;;;;;;;32.39;100.00;100511.97;4918762;29;20028;-72
2021/07/31 07:28:13;;;;;;;17.23;9.50;;;;;;;32.32;100.00;100509.09;4918530;29;20412;-72
2021/07/31 07:30:58;;;;;;;15.63;10.35;;;;;;;32.14;100.00;100504.84;4917467;29;20346;-72
2021/07/31 07:33:44;;;;;;;20.67;10.85;;;;;;;31.37;100.00;100505.19;4917985;29;20024;-72
2021/07/31 07:36:30;;;;;;;20.77;11.07;;;;;;;31.89;100.00;100505.84;4917798;29;20042;-72
2021/07/31 07:39:16;;;;;;;15.13;10.45;;;;;;;32.07;100.00;100498.41;4917563;29;20354;-71
2021/07/31 07:42:05;;;;;;;19.83;10.32;;;;;;;32.80;100.00;100497.31;4918427;29;20028;-71
2021/07/31 07:44:51;;;;;;;13.98;9.95;;;;;;;33.21;100.00;100499.75;4918643;29;20032;-72
2021/07/31 07:47:37;;;;;;;19.05;10.35;;;;;;;33.35;100.00;100507.16;4918057;29;20461;-72
2021/07/31 07:50:23;;;;;;;17.77;10.43;;;;;;;33.34;100.00;100512.75;4918141;29;20036;-72
2021/07/31 07:53:08;;;;;;;13.50;9.85;;;;;;;33.32;100.00;100509.41;4917822;29;20032;-71
2021/07/31 07:55:54;;;;;;;15.02;9.90;;;;;;;33.53;100.00;100513.19;4917376;29;20032;-72
2021/07/31 07:58:40;;;;;;;14.65;10.13;;;;;;;33.70;100.00;100509.34;4917562;29;20106;-72
2021/07/31 08:01:26;;;;;;;18.88;10.20;;;;;;;33.46;100.00;100512.19;4917850;29;20024;-71
2021/07/31 08:04:11;;;;;;;19.27;10.35;;;;;;;33.60;100.00;100513.31;4918135;29;20036;-71
2021/07/31 08:06:57;;;;;;;23.02;10.32;;;;;;;33.91;97.67;100508.75;4917301;29;20039;-71
2021/07/31 08:09:43;;;;;;;15.63;9.45;;;;;;;34.02;96.96;100506.44;4918110;29;20115;-71
2021/07/31 08:12:29;;;;;;;14.60;9.98;;;;;;;33.85;96.51;100504.88;4916702;29;20028;-71
2021/07/31 08:15:14;;;;;;;14.57;9.48;;;;;;;33.86;96.50;100505.69;4917737;29;20029;-72
2021/07/31 08:18:00;;;;;;;15.18;10.13;;;;;;;33.62;96.93;100508.53;4917271;29;20082;-71
2021/07/31 08:20:46;;;;;;;16.05;10.82;;;;;;;33.32;99.33;100502.09;4918149;29;20028;-71
2021/07/31 08:23:32;;;;;;;17.38;10.35;;;;;;;33.81;97.08;100502.63;4917896;29;20366;-71
2021/07/31 08:26:18;;;;;;;19.92;10.32;;;;;;;33.81;96.33;100505.38;4917733;29;20031;-71
2021/07/31 08:29:03;;;;;;;17.90;10.43;;;;;;;33.96;94.93;100501.69;4917867;29;20032;-72
2021/07/31 08:31:49;;;;;;;14.75;10.63;;;;;;;34.71;90.72;100495.25;4917591;29;20156;-71
2021/07/31 08:34:35;;;;;;;17.45;11.15;;;;;;;34.64;91.78;100494.31;4917349;29;20039;-71
2021/07/31 08:37:21;;;;;;;20.15;10.73;;;;;;;35.03;87.88;100494.06;4917227;29;20036;-71
2021/07/31 08:40:09;;;;;;;16.77;10.82;;;;;;;34.80;90.10;100496.88;4917029;29;20036;-71
2021/07/31 08:42:55;;;;;;;17.58;10.95;;;;;;;34.37;92.03;100494.09;4917245;29;20035;-71
2021/07/31 08:45:41;;;;;;;29.55;11.55;;;;;;;34.72;90.00;100490.66;4917737;29;20028;-71
2021/07/31 08:48:28;;;;;;;15.52;10.52;;;;;;;35.16;85.94;100492.38;4917937;29;20430;-71
2021/07/31 08:51:18;;;;;;;12.77;10.35;;;;;;;35.47;85.33;100492.16;4917696;29;20452;-71
2021/07/31 08:54:04;;;;;;;20.63;10.95;;;;;;;35.39;83.50;100485.97;4917175;29;20024;-71
2021/07/31 08:56:49;;;;;;;20.52;11.20;;;;;;;34.74;87.63;100485.88;4916950;29;20028;-71
2021/07/31 08:59:35;;;;;;;19.35;11.27;;;;;;;35.14;85.57;100486.28;4917592;29;20032;-72
2021/07/31 09:02:22;;;;;;;14.13;10.32;;;;;;;35.05;87.79;100481.97;4916681;29;20028;-72
2021/07/31 09:05:09;;;;;;;17.30;11.27;;;;;;;35.79;82.35;100488.16;4916487;29;20032;-71
2021/07/31 09:08:06;;;;;;;17.25;11.13;;;;;;;36.30;80.69;100486.97;4917258;29;20056;-71
2021/07/31 09:10:52;;;;;;;21.38;11.95;;;;;;;35.86;81.33;100481.72;4921420;29;20035;-72
2021/07/31 09:13:38;;;;;;;19.05;11.45;;;;;;;36.08;80.55;100482.56;4920861;29;20025;-71
2021/07/31 09:16:33;;;;;;;22.73;11.88;;;;;;;35.31;84.29;100481.47;4920681;29;20495;-70
2021/07/31 09:19:19;;;;;;;19.13;11.77;;;;;;;35.64;84.44;100473.69;4920488;29;20074;-71
2021/07/31 09:22:07;;;;;;;21.85;11.73;;;;;;;35.60;84.43;100477.84;4920764;29;20142;-71
2021/07/31 09:25:10;;;;;;;17.17;10.73;;;;;;;35.95;80.65;100474.25;4919834;29;20530;-71
2021/07/31 09:28:17;;;;;;;21.80;11.70;;;;;;;36.31;78.00;100475.03;4920691;29;20032;-71
2021/07/31 09:31:02;;;;;;;19.25;11.35;;;;;;;35.70;81.50;100475.63;4920738;29;20122;-71
2021/07/31 09:33:49;;;;;;;52.65;12.40;;;;;;;35.73;83.15;100472.50;4920955;29;20479;-71
2021/07/31 09:36:42;;;;;;;19.88;12.05;;;;;;;36.31;82.33;100475.03;4919584;29;20036;-71
2021/07/31 09:39:49;;;;;;;16.23;11.98;;;;;;;35.89;85.30;100469.56;4920844;29;20103;-71
2021/07/31 09:42:36;;;;;;;22.52;12.00;;;;;;;36.00;84.00;100469.88;4920147;29;20034;-71
2021/07/31 09:45:32;;;;;;;22.88;12.07;;;;;;;35.79;86.78;100469.06;4919760;29;20032;-71
2021/07/31 09:48:18;;;;;;;16.35;12.02;;;;;;;35.46;87.67;100457.75;4919750;29;20028;-71
2021/07/31 09:51:03;;;;;;;22.65;12.15;;;;;;;36.02;84.91;100465.06;4919954;29;20371;-72
2021/07/31 09:53:49;;;;;;;20.75;11.98;;;;;;;36.37;83.41;100455.97;4920354;29;20031;-71
2021/07/31 09:56:42;;;;;;;16.98;11.60;;;;;;;36.18;83.30;100453.03;4919637;29;20067;-71
2021/07/31 09:59:29;;;;;;;25.70;12.73;;;;;;;35.94;85.40;100451.56;4920388;29;20392;-72
2021/07/31 10:02:18;;;;;;;17.45;11.68;;;;;;;36.00;86.86;100448.03;4919995;29;20047;-72
2021/07/31 10:05:04;;;;;;;25.40;12.57;;;;;;;36.02;84.86;100439.66;4919920;29;20365;-72
2021/07/31 10:07:50;;;;;;;21.30;11.13;;;;;;;36.50;83.86;100439.66;4919905;29;20035;-72
2021/07/31 10:10:36;;;;;;;17.27;11.70;;;;;;;36.33;83.29;100435.56;4920118;29;20406;-72
2021/07/31 10:13:23;;;;;;;18.20;11.85;;;;;;;36.42;84.55;100433.50;4919781;29;20094;-72
2021/07/31 10:16:09;;;;;;;24.02;11.80;;;;;;;36.33;85.07;100429.25;4919475;29;20047;-72
2021/07/31 10:19:03;;;;;;;19.50;12.00;;;;;;;36.31;85.84;100426.72;4919375;29;20369;-72
2021/07/31 10:22:00;;;;;;;24.65;12.05;;;;;;;35.88;84.49;100426.97;4920367;29;20410;-72
2021/07/31 10:24:58;;;;;;;19.23;11.55;;;;;;;36.05;85.95;100426.50;4919634;29;20032;-72
2021/07/31 10:27:45;;;;;;;22.02;11.77;;;;;;;35.70;88.66;100426.53;4920360;29;20038;-72
2021/07/31 10:30:34;;;;;;;18.77;12.13;;;;;;;35.64;89.91;100430.06;4918778;29;20525;-72
2021/07/31 10:33:42;;;;;;;19.48;12.02;;;;;;;36.03;85.94;100427.75;4919956;29;20036;-72
2021/07/31 10:36:38;;;;;;;20.23;11.25;;;;;;;36.25;84.84;100427.53;4919706;29;20469;-72
2021/07/31 10:39:26;;;;;;;22.35;11.02;;;;;;;36.61;81.90;100428.19;4919138;29;20111;-72
2021/07/31 10:42:12;;;;;;;18.35;10.85;;;;;;;36.24;82.84;100419.53;4918354;29;20100;-72
2021/07/31 10:45:10;;;;;;;19.92;11.73;;;;;;;36.76;78.65;100420.72;4919498;29;20115;-72
2021/07/31 10:48:22;;;;;;;16.48;11.18;;;;;;;37.05;76.55;100430.53;4919476;29;20154;-72
2021/07/31 10:51:41;;;;;;;19.27;10.55;;;;;;;37.49;75.27;100422.72;4919430;29;20088;-72
2021/07/31 10:54:58;;;;;;;16.75;10.63;;;;;;;37.05;75.22;100415.00;4919007;29;20111;-72
2021/07/31 10:57:53;;;;;;;18.30;10.10;;;;;;;37.41;73.81;100417.47;4919364;29;20457;-72
2021/07/31 11:00:41;;;;;;;20.55;11.18;;;;;;;36.83;75.34;100413.41;4918051;29;20091;-72
2021/07/31 11:03:31;;;;;;;19.67;11.02;;;;;;;36.78;75.36;100409.59;4918770;29;20032;-71
2021/07/31 11:06:17;;;;;;;19.10;10.80;;;;;;;37.13;77.11;100406.63;4918734;29;20057;-72
2021/07/31 11:09:11;;;;;;;17.23;10.70;;;;;;;37.36;74.28;100411.78;4919407;29;20028;-72
2021/07/31 11:12:35;;;;;;;15.48;10.18;;;;;;;37.52;71.89;100397.72;4918909;29;20118;-72
2021/07/31 11:15:22;;;;;;;21.45;10.93;;;;;;;37.47;69.28;100402.94;4918456;29;20032;-72
2021/07/31 11:18:08;;;;;;;18.27;10.68;;;;;;;37.60;65.91;100397.56;4918775;29;20043;-72
2021/07/31 11:20:54;;;;;;;19.15;10.80;;;;;;;37.83;67.89;100401.56;4917747;29;20109;-71
2021/07/31 11:23:41;;;;;;;19.90;10.20;;;;;;;38.23;67.90;100395.06;4918289;29;20175;-72
2021/07/31 11:26:33;;;;;;;22.42;10.57;;;;;;;38.01;68.13;100390.00;4919163;29;20043;-72
2021/07/31 11:29:23;;;;;;;20.95;10.13;;;;;;;37.91;61.79;100386.81;4918649;29;20049;-71
2021/07/31 11:32:14;;;;;;;21.83;10.75;;;;;;;37.89;63.70;100387.03;4917802;29;20032;-71
2021/07/31 11:35:00;;;;;;;18.95;9.88;;;;;;;37.30;63.03;100386.09;4918349;29;20032;-71
2021/07/31 11:37:46;;;;;;;24.00;10.70;;;;;;;37.47;62.30;100387.41;4917773;29;20420;-71
2021/07/31 11:40:31;;;;;;;17.52;10.25;;;;;;;37.98;60.23;100385.78;4918879;29;20032;-71
2021/07/31 11:43:17;;;;;;;19.40;10.65;;;;;;;38.30;63.19;100395.03;4917978;29;20070;-72
2021/07/31 11:46:03;;;;;;;19.98;10.07;;;;;;;38.53;59.72;100379.84;4918458;29;20449;-72
2021/07/31 11:48:48;;;;;;;22.55;10.98;;;;;;;38.85;57.69;100381.63;4917901;29;20062;-72
2021/07/31 11:51:43;;;;;;;15.98;10.02;;;;;;;38.25;58.17;100379.25;4918601;29;20028;-72
2021/07/31 11:54:30;;;;;;;15.27;9.82;;;;;;;38.72;57.47;100375.34;4918003;29;20067;-72
2021/07/31 11:57:16;;;;;;;20.27;10.40;;;;;;;38.72;57.45;100372.63;4917666;29;20532;-72
2021/07/31 12:00:02;;;;;;;17.45;9.68;;;;;;;39.05;50.85;100373.38;4917608;29;20043;-72
2021/07/31 12:02:48;;;;;;;16.52;9.65;;;;;;;39.20;49.07;100364.84;4917538;29;20042;-72
2021/07/31 12:05:37;;;;;;;20.80;10.02;;;;;;;38.91;48.37;100362.66;4917385;29;20106;-72
2021/07/31 12:08:45;;;;;;;23.20;10.20;;;;;;;39.30;46.39;100365.19;4918047;29;20036;-72
2021/07/31 12:11:39;;;;;;;23.60;10.27;;;;;;;39.06;43.13;100358.59;4916378;29;20028;-72
2021/07/31 12:14:31;;;;;;;21.10;10.30;;;;;;;38.98;46.33;100349.78;4917177;29;20032;-72
2021/07/31 12:17:23;;;;;;;22.25;10.60;;;;;;;38.81;47.07;100360.38;4918002;29;20028;-72
2021/07/31 12:20:09;;;;;;;23.95;10.10;;;;;;;38.98;44.07;100355.25;4917296;29;20465;-72
2021/07/31 12:22:55;;;;;;;21.83;10.50;;;;;;;39.02;39.60;100351.03;4917954;29;20032;-72
2021/07/31 12:25:58;;;;;;;24.80;10.70;;;;;;;39.60;38.47;100345.19;4917638;29;20130;-71
2021/07/31 12:28:44;;;;;;;21.63;9.65;;;;;;;39.53;38.38;100349.88;4917640;29;20020;-71
2021/07/31 12:31:30;;;;;;;21.38;10.05;;;;;;;39.58;37.56;100340.97;4916783;29;20052;-71
2021/07/31 12:34:16;;;;;;;21.98;10.30;;;;;;;39.53;38.02;100340.81;4918826;29;20043;-71
2021/07/31 12:37:02;;;;;;;25.85;10.07;;;;;;;39.11;38.06;100345.06;4917176;29;20032;-71
2021/07/31 12:39:52;;;;;;;22.17;10.40;;;;;;;39.68;37.41;100344.09;4917921;29;20103;-71